createdAt,value
2023-11-17T00:00:06.848Z,21.10
2023-11-17T00:02:34.636Z,19.90
2023-11-17T00:05:02.277Z,24.60
2023-11-17T00:07:30.045Z,18.90
2023-11-17T00:09:58.016Z,19.80
2023-11-17T00:12:25.676Z,16.80
2023-11-17T00:14:53.257Z,15.90
2023-11-17T00:17:20.791Z,17.60
2023-11-17T00:19:48.761Z,11.80
2023-11-17T00:22:16.357Z,15.40
2023-11-17T00:24:44.044Z,13.20
2023-11-17T00:27:11.619Z,13.60
2023-11-17T00:29:39.117Z,14.80
2023-11-17T00:32:07.248Z,15.50
2023-11-17T00:34:34.878Z,18.00
2023-11-17T00:37:04.375Z,17.50
2023-11-17T00:39:32.753Z,28.20
2023-11-17T00:42:00.297Z,20.40
2023-11-17T00:44:28.149Z,27.70
2023-11-17T00:46:56.464Z,34.50
2023-11-17T00:49:24.144Z,38.70
2023-11-17T00:51:52.284Z,32.10
2023-11-17T00:54:20.096Z,19.40
2023-11-17T00:56:48.028Z,20.10
2023-11-17T00:59:15.547Z,17.60
2023-11-17T01:01:43.139Z,12.80
2023-11-17T01:04:10.788Z,14.30
2023-11-17T01:06:38.336Z,12.80
2023-11-17T01:09:05.872Z,13.30
2023-11-17T01:11:33.394Z,15.60
2023-11-17T01:14:01.005Z,14.90
2023-11-17T01:16:28.610Z,13.40
2023-11-17T01:18:56.164Z,14.70
2023-11-17T01:21:23.714Z,15.50
2023-11-17T01:23:51.254Z,13.30
2023-11-17T01:26:18.799Z,10.90
2023-11-17T01:28:46.332Z,12.60
2023-11-17T01:31:14.237Z,12.20
2023-11-17T01:33:41.785Z,13.90
2023-11-17T01:36:09.297Z,16.30
2023-11-17T01:38:46.500Z,13.90
2023-11-17T01:41:18.396Z,12.10
2023-11-17T01:43:46.020Z,11.80
2023-11-17T01:46:13.755Z,12.50
2023-11-17T01:48:41.325Z,14.30
2023-11-17T01:51:08.981Z,13.30
2023-11-17T01:53:36.566Z,12.80
2023-11-17T01:56:04.165Z,10.60
2023-11-17T01:58:31.828Z,13.10
2023-11-17T02:00:59.368Z,13.60
2023-11-17T02:03:26.981Z,15.70
2023-11-17T02:05:54.951Z,12.30
2023-11-17T02:08:22.884Z,11.50
2023-11-17T02:10:50.404Z,13.90
2023-11-17T02:13:17.935Z,11.90
2023-11-17T02:15:45.507Z,13.50
2023-11-17T02:18:13.069Z,10.10
2023-11-17T02:20:40.602Z,9.90
2023-11-17T02:23:08.113Z,8.50
2023-11-17T02:25:35.626Z,8.60
2023-11-17T02:28:03.281Z,11.60
2023-11-17T02:30:30.843Z,10.20
2023-11-17T02:32:58.545Z,8.80
2023-11-17T02:35:26.722Z,8.50
2023-11-17T02:37:54.566Z,9.60
2023-11-17T02:40:22.153Z,8.70
2023-11-17T02:42:49.767Z,8.70
2023-11-17T02:45:17.395Z,8.50
2023-11-17T02:47:44.962Z,10.10
2023-11-17T02:50:12.515Z,11.70
2023-11-17T02:52:40.188Z,7.80
2023-11-17T02:55:07.807Z,9.30
2023-11-17T02:57:35.718Z,11.10
2023-11-17T03:00:03.691Z,12.60
2023-11-17T03:02:31.352Z,11.70
2023-11-17T03:04:58.883Z,10.90
2023-11-17T03:07:26.559Z,9.60
2023-11-17T03:09:54.285Z,11.50
2023-11-17T03:12:21.845Z,14.10
2023-11-17T03:14:49.741Z,10.50
2023-11-17T03:17:17.280Z,12.30
2023-11-17T03:19:44.859Z,10.30
2023-11-17T03:22:12.502Z,8.40
2023-11-17T03:24:40.009Z,9.50
2023-11-17T03:27:07.515Z,11.10
2023-11-17T03:29:35.138Z,9.30
2023-11-17T03:32:02.866Z,7.80
2023-11-17T03:34:31.249Z,9.50
2023-11-17T03:36:59.489Z,9.20
2023-11-17T03:39:27.002Z,7.60
2023-11-17T03:41:55.027Z,14.50
2023-11-17T03:44:22.567Z,11.40
2023-11-17T03:46:50.244Z,14.60
2023-11-17T03:49:18.051Z,11.20
2023-11-17T03:51:45.578Z,8.40
2023-11-17T03:54:13.087Z,8.40
2023-11-17T03:56:40.705Z,7.60
2023-11-17T03:59:08.278Z,8.90
2023-11-17T04:01:36.032Z,9.70
2023-11-17T04:04:03.704Z,9.00
2023-11-17T04:06:31.295Z,8.80
2023-11-17T04:08:58.851Z,9.70
2023-11-17T04:11:26.538Z,8.40
2023-11-17T04:13:54.061Z,7.90
2023-11-17T04:16:21.720Z,8.80
2023-11-17T04:18:49.353Z,7.90
2023-11-17T04:21:16.910Z,9.70
2023-11-17T04:23:44.406Z,8.40
2023-11-17T04:26:11.985Z,7.70
2023-11-17T04:28:39.509Z,14.50
2023-11-17T04:31:07.013Z,9.80
2023-11-17T04:33:34.645Z,8.30
2023-11-17T04:36:02.175Z,7.10
2023-11-17T04:38:29.685Z,10.10
2023-11-17T04:40:57.320Z,7.70
2023-11-17T04:43:24.858Z,8.70
2023-11-17T04:45:52.574Z,6.70
2023-11-17T04:48:20.546Z,8.00
2023-11-17T04:50:48.042Z,4.80
2023-11-17T04:53:15.599Z,7.90
2023-11-17T04:55:43.397Z,5.70
2023-11-17T04:58:10.948Z,6.50
2023-11-17T05:00:38.530Z,5.90
2023-11-17T05:03:06.192Z,3.70
2023-11-17T05:05:33.786Z,5.50
2023-11-17T05:08:01.322Z,4.70
2023-11-17T05:10:28.898Z,4.90
2023-11-17T05:12:56.456Z,7.30
2023-11-17T05:15:24.053Z,4.50
2023-11-17T05:17:51.895Z,5.70
2023-11-17T05:20:19.482Z,4.50
2023-11-17T05:22:47.130Z,5.40
2023-11-17T05:25:14.771Z,3.80
2023-11-17T05:27:42.453Z,3.60
2023-11-17T05:30:10.124Z,3.20
2023-11-17T05:32:37.721Z,4.60
2023-11-17T05:35:05.294Z,5.20
2023-11-17T05:37:32.964Z,4.10
2023-11-17T05:40:00.600Z,6.30
2023-11-17T05:42:28.317Z,5.40
2023-11-17T05:44:55.893Z,3.10
2023-11-17T05:47:23.562Z,4.10
2023-11-17T05:49:51.120Z,5.20
2023-11-17T05:52:18.767Z,4.10
2023-11-17T05:54:46.374Z,5.40
2023-11-17T05:57:13.879Z,4.50
2023-11-17T05:59:41.511Z,4.00
2023-11-17T06:02:09.139Z,3.70
2023-11-17T06:04:36.753Z,3.70
2023-11-17T06:07:04.341Z,3.90
2023-11-17T06:09:31.951Z,4.40
2023-11-17T06:11:59.485Z,4.50
2023-11-17T06:14:27.178Z,6.90
2023-11-17T06:16:55.006Z,3.40
2023-11-17T06:19:22.713Z,5.90
2023-11-17T06:21:50.450Z,6.70
2023-11-17T06:24:18.041Z,5.00
2023-11-17T06:26:45.602Z,3.50
2023-11-17T06:29:13.183Z,4.30
2023-11-17T06:31:41.506Z,3.00
2023-11-17T06:34:09.180Z,7.80
2023-11-17T06:36:38.186Z,7.30
2023-11-17T06:39:11.852Z,7.10
2023-11-17T06:41:39.327Z,5.50
2023-11-17T06:44:06.861Z,6.50
2023-11-17T06:46:34.476Z,8.10
2023-11-17T06:49:02.131Z,8.40
2023-11-17T06:51:29.654Z,7.50
2023-11-17T06:53:57.306Z,8.00
2023-11-17T06:56:25.046Z,7.90
2023-11-17T06:58:52.640Z,5.00
2023-11-17T07:01:21.330Z,5.20
2023-11-17T07:03:49.916Z,4.20
2023-11-17T07:06:17.529Z,4.90
2023-11-17T07:08:45.196Z,3.80
2023-11-17T07:11:12.720Z,3.90
2023-11-17T07:13:40.350Z,4.30
2023-11-17T07:16:07.994Z,4.90
2023-11-17T07:18:35.762Z,3.90
2023-11-17T07:21:03.471Z,3.50
2023-11-17T07:23:31.057Z,5.30
2023-11-17T07:25:58.626Z,5.90
2023-11-17T07:28:26.264Z,4.60
2023-11-17T07:30:53.895Z,4.80
2023-11-17T07:33:21.525Z,3.80
2023-11-17T07:35:49.060Z,3.50
2023-11-17T07:38:16.626Z,5.90
2023-11-17T07:40:44.427Z,5.70
2023-11-17T07:43:12.051Z,5.20
2023-11-17T07:45:39.621Z,4.50
2023-11-17T07:48:07.196Z,4.70
2023-11-17T07:50:34.857Z,4.80
2023-11-17T07:53:02.338Z,4.90
2023-11-17T07:55:30.199Z,3.60
2023-11-17T07:57:58.157Z,7.90
2023-11-17T08:00:25.722Z,4.70
2023-11-17T08:02:53.473Z,4.70
2023-11-17T08:05:21.752Z,5.70
2023-11-17T08:07:49.354Z,4.20
2023-11-17T08:10:16.965Z,5.40
2023-11-17T08:12:44.841Z,5.30
2023-11-17T08:15:12.403Z,5.90
2023-11-17T08:17:39.964Z,6.00
2023-11-17T08:20:07.963Z,6.30
2023-11-17T08:22:35.606Z,7.10
2023-11-17T08:25:03.355Z,4.50
2023-11-17T08:27:30.992Z,8.40
2023-11-17T08:29:58.515Z,3.60
2023-11-17T08:32:26.091Z,6.50
2023-11-17T08:34:53.682Z,7.70
2023-11-17T08:37:21.247Z,5.30
2023-11-17T08:39:48.748Z,5.70
2023-11-17T08:42:17.359Z,6.70
2023-11-17T08:44:45.103Z,9.70
2023-11-17T08:47:12.695Z,6.70
2023-11-17T08:49:40.360Z,6.40
2023-11-17T08:52:07.898Z,7.20
2023-11-17T08:54:35.670Z,7.70
2023-11-17T08:57:03.230Z,12.80
2023-11-17T08:59:30.749Z,7.80
2023-11-17T09:01:58.425Z,6.30
2023-11-17T09:04:26.019Z,6.90
2023-11-17T09:06:53.560Z,7.70
2023-11-17T09:09:28.551Z,15.60
2023-11-17T09:11:58.562Z,8.00
2023-11-17T09:14:28.863Z,5.80
2023-11-17T09:16:58.992Z,6.80
2023-11-17T09:19:26.764Z,6.60
2023-11-17T09:21:54.325Z,6.90
2023-11-17T09:24:21.942Z,6.00
2023-11-17T09:26:49.506Z,6.80
2023-11-17T09:29:17.126Z,7.90
2023-11-17T09:31:44.953Z,7.40
2023-11-17T09:34:12.625Z,7.30
2023-11-17T09:36:40.892Z,7.60
2023-11-17T09:39:08.534Z,7.50
2023-11-17T09:41:36.116Z,7.30
2023-11-17T09:44:03.619Z,8.60
2023-11-17T09:46:31.121Z,8.00
2023-11-17T09:48:58.670Z,8.20
2023-11-17T09:51:26.242Z,11.00
2023-11-17T09:53:55.816Z,8.50
2023-11-17T09:56:23.617Z,10.90
2023-11-17T09:58:51.281Z,8.90
2023-11-17T10:01:19.093Z,9.20
2023-11-17T10:03:46.774Z,10.90
2023-11-17T10:06:14.493Z,10.80
2023-11-17T10:08:42.020Z,7.40
2023-11-17T10:11:09.522Z,12.90
2023-11-17T10:13:37.281Z,11.60
2023-11-17T10:16:04.904Z,12.90
2023-11-17T10:18:32.452Z,9.80
2023-11-17T10:21:00.153Z,10.00
2023-11-17T10:23:27.966Z,8.80
2023-11-17T10:25:56.378Z,12.50
2023-11-17T10:31:18.366Z,11.30
2023-11-17T10:33:44.691Z,11.10
2023-11-17T10:36:11.029Z,15.10
2023-11-17T10:38:37.479Z,15.40
2023-11-17T10:41:04.109Z,22.90
2023-11-17T10:43:30.760Z,34.10
2023-11-17T10:45:56.991Z,16.40
2023-11-17T10:48:23.229Z,33.20
2023-11-17T10:50:49.385Z,25.00
2023-11-17T10:55:42.392Z,17.60
2023-11-17T10:58:08.620Z,17.20
2023-11-17T11:00:34.888Z,12.40
2023-11-17T11:03:01.236Z,14.00
2023-11-17T11:05:27.567Z,15.60
2023-11-17T11:10:19.898Z,11.30
2023-11-17T11:15:12.287Z,13.80
2023-11-17T11:20:21.206Z,10.00
2023-11-17T11:25:15.790Z,11.20
2023-11-17T11:27:42.018Z,11.40
2023-11-17T11:30:08.265Z,13.00
2023-11-17T11:32:34.487Z,9.80
2023-11-17T11:35:00.712Z,12.40
2023-11-17T11:37:27.024Z,10.30
2023-11-17T11:39:53.972Z,12.50
2023-11-17T11:42:20.180Z,10.60
2023-11-17T11:47:12.532Z,14.70
2023-11-17T11:49:38.885Z,16.20
2023-11-17T11:52:05.131Z,12.80
2023-11-17T11:54:31.436Z,11.80
2023-11-17T11:56:57.898Z,12.70
2023-11-17T11:59:24.530Z,12.10
2023-11-17T12:04:17.018Z,13.20
2023-11-17T12:06:47.244Z,13.10
2023-11-17T12:09:16.420Z,11.70
2023-11-17T12:11:43.064Z,10.70
2023-11-17T12:14:09.385Z,10.70
2023-11-17T12:16:35.728Z,8.40
2023-11-17T12:19:02.545Z,6.40
2023-11-17T12:21:28.900Z,6.90
2023-11-17T12:26:21.292Z,17.00
2023-11-17T12:31:13.788Z,6.70
2023-11-17T12:33:39.999Z,9.30
2023-11-17T12:38:32.456Z,5.80
2023-11-17T12:43:25.143Z,10.30
2023-11-17T12:48:17.961Z,6.90
2023-11-17T12:50:44.129Z,8.20
2023-11-17T12:55:37.562Z,4.40
2023-11-17T12:58:03.958Z,9.70
2023-11-17T13:00:30.150Z,8.60
2023-11-17T13:05:24.134Z,6.50
2023-11-17T13:07:51.852Z,6.60
2023-11-17T13:10:18.109Z,6.30
2023-11-17T13:12:44.422Z,6.00
2023-11-17T13:15:11.139Z,5.70
2023-11-17T13:17:37.895Z,6.50
2023-11-17T13:20:04.419Z,6.90
2023-11-17T13:22:31.592Z,6.00
2023-11-17T13:27:23.952Z,8.10
2023-11-17T13:29:50.137Z,10.90
2023-11-17T13:34:42.676Z,5.50
2023-11-17T13:37:09.377Z,6.90
2023-11-17T13:39:35.566Z,4.20
2023-11-17T13:42:01.706Z,5.20
2023-11-17T13:46:59.183Z,4.30
2023-11-17T13:49:25.657Z,4.90
2023-11-17T13:54:18.064Z,6.30
2023-11-17T13:56:44.383Z,5.50
2023-11-17T14:01:37.443Z,4.10
2023-11-17T14:04:04.116Z,6.50
2023-11-17T14:06:30.447Z,4.10
2023-11-17T14:11:22.801Z,3.80
2023-11-17T14:13:49.030Z,5.50
2023-11-17T14:16:15.492Z,2.90
2023-11-17T14:18:41.672Z,4.90
2023-11-17T14:23:34.124Z,4.30
2023-11-17T14:28:26.478Z,5.40
2023-11-17T14:33:19.146Z,4.00
2023-11-17T14:35:45.332Z,3.30
2023-11-17T14:38:11.485Z,4.00
2023-11-17T14:43:04.061Z,2.30
2023-11-17T14:45:30.744Z,4.50
2023-11-17T14:47:57.156Z,5.50
2023-11-17T14:50:23.489Z,4.90
2023-11-17T14:55:16.109Z,5.50
2023-11-17T14:57:42.473Z,4.60
2023-11-17T15:02:35.549Z,3.40
2023-11-17T15:05:01.676Z,4.30
2023-11-17T15:07:28.343Z,8.40
2023-11-17T15:09:54.618Z,6.50
2023-11-17T15:14:47.088Z,6.00
2023-11-17T15:19:41.025Z,3.70
2023-11-17T15:22:08.581Z,3.50
2023-11-17T15:27:01.059Z,3.20
2023-11-17T15:29:27.279Z,4.40
2023-11-17T15:31:54.776Z,6.30
2023-11-17T15:34:21.364Z,2.60
2023-11-17T15:36:47.712Z,5.40
2023-11-17T15:41:40.065Z,6.00
2023-11-17T15:46:34.966Z,7.20
2023-11-17T15:49:01.206Z,3.90
2023-11-17T15:51:27.638Z,6.20
2023-11-17T15:53:54.125Z,5.00
2023-11-17T15:56:20.293Z,4.20
2023-11-17T15:58:46.478Z,13.90
2023-11-17T16:03:39.017Z,4.00
2023-11-17T16:06:05.246Z,5.40
2023-11-17T16:08:31.451Z,7.20
2023-11-17T16:13:24.217Z,4.10
2023-11-17T16:18:16.918Z,5.20
2023-11-17T16:20:43.496Z,5.30
2023-11-17T16:25:36.350Z,5.10
2023-11-17T16:28:02.493Z,5.10
2023-11-17T16:30:28.660Z,4.00
2023-11-17T16:32:55.296Z,4.30
2023-11-17T16:35:23.313Z,4.40
2023-11-17T16:37:49.771Z,6.30
2023-11-17T16:40:16.060Z,4.20
2023-11-17T16:42:43.606Z,4.00
2023-11-17T16:45:11.325Z,6.90
2023-11-17T16:50:04.400Z,5.80
2023-11-17T16:52:30.625Z,4.40
2023-11-17T16:54:56.943Z,4.90
2023-11-17T16:59:49.313Z,5.40
2023-11-17T17:02:16.129Z,3.40
2023-11-17T17:04:42.553Z,3.30
2023-11-17T17:07:08.756Z,3.30
2023-11-17T17:12:01.459Z,5.00
2023-11-17T17:14:28.066Z,3.90
2023-11-17T17:16:54.528Z,3.80
2023-11-17T17:19:21.098Z,4.30
2023-11-17T17:21:47.329Z,2.90
2023-11-17T17:24:13.895Z,2.20
2023-11-17T17:26:40.117Z,2.90
2023-11-17T17:31:32.516Z,2.70
2023-11-17T17:33:58.744Z,3.40
2023-11-17T17:38:51.288Z,4.00
2023-11-17T17:41:17.507Z,2.90
2023-11-17T17:43:44.093Z,3.80
2023-11-17T17:48:36.522Z,3.80
2023-11-17T17:51:03.120Z,3.70
2023-11-17T17:53:29.623Z,3.90
2023-11-17T17:58:22.177Z,4.50
2023-11-17T18:00:48.444Z,5.30
2023-11-17T18:03:14.762Z,4.40
2023-11-17T18:05:41.269Z,4.60
2023-11-17T18:08:07.502Z,4.10
2023-11-17T18:12:59.877Z,7.60
2023-11-17T18:17:53.499Z,3.80
2023-11-17T18:20:20.386Z,7.10
2023-11-17T18:22:46.594Z,6.10
2023-11-17T18:25:12.862Z,5.10
2023-11-17T18:30:05.310Z,5.50
2023-11-17T18:34:57.872Z,5.00
2023-11-17T18:39:52.261Z,3.10
2023-11-17T18:42:19.084Z,4.00
2023-11-17T18:47:11.564Z,6.10
2023-11-17T18:52:04.552Z,3.10
2023-11-17T18:54:30.797Z,4.80
2023-11-17T18:59:23.315Z,3.80
2023-11-17T19:04:15.907Z,4.80
2023-11-17T19:09:08.249Z,6.70
2023-11-17T19:14:00.726Z,4.50
2023-11-17T19:16:27.491Z,5.80
2023-11-17T19:21:19.884Z,8.60
2023-11-17T19:23:46.040Z,9.20
2023-11-17T19:26:12.233Z,4.10
2023-11-17T19:28:38.829Z,4.50
2023-11-17T19:31:05.040Z,5.70
2023-11-17T19:36:04.378Z,4.90
2023-11-17T19:38:35.688Z,13.10
2023-11-17T19:43:28.031Z,3.60
2023-11-17T19:48:20.934Z,4.90
2023-11-17T19:53:13.230Z,4.00
2023-11-17T19:58:05.718Z,7.70
2023-11-17T20:00:31.937Z,6.40
2023-11-17T20:02:58.753Z,3.40
2023-11-17T20:05:25.307Z,3.30
2023-11-17T20:07:52.260Z,4.30
2023-11-17T20:12:45.253Z,4.90
2023-11-17T20:15:11.471Z,5.00
2023-11-17T20:20:20.880Z,3.70
2023-11-17T20:22:47.443Z,4.30
2023-11-17T20:25:13.669Z,3.30
2023-11-17T20:30:06.095Z,3.00
2023-11-17T20:35:00.843Z,4.90
2023-11-17T20:37:27.111Z,4.80
2023-11-17T20:42:19.458Z,4.00
2023-11-17T20:47:11.917Z,3.50
2023-11-17T20:49:38.239Z,4.10
2023-11-17T20:52:04.442Z,3.60
2023-11-17T20:56:56.791Z,3.30
2023-11-17T20:59:22.975Z,4.80
2023-11-17T21:01:49.653Z,12.80
2023-11-17T21:04:15.924Z,5.60
2023-11-17T21:06:42.507Z,5.00
2023-11-17T21:11:34.982Z,3.20
2023-11-17T21:14:01.590Z,13.50
2023-11-17T21:16:28.064Z,4.30
2023-11-17T21:18:54.215Z,5.00
2023-11-17T21:23:46.647Z,8.90
2023-11-17T21:28:39.618Z,4.30
2023-11-17T21:33:32.021Z,10.90
2023-11-17T21:38:24.341Z,11.00
2023-11-17T21:43:17.183Z,13.50
2023-11-17T21:45:43.409Z,3.60
2023-11-17T21:48:09.996Z,6.20
2023-11-17T21:50:36.634Z,5.10
2023-11-17T21:53:03.360Z,5.30
2023-11-17T21:57:56.177Z,4.60
2023-11-17T22:00:22.413Z,15.10
2023-11-17T22:05:15.857Z,19.50
2023-11-17T22:07:42.158Z,17.20
2023-11-17T22:12:34.548Z,18.00
2023-11-17T22:17:26.978Z,6.10
2023-11-17T22:19:53.619Z,4.00
2023-11-17T22:24:46.091Z,4.50
2023-11-17T22:27:12.493Z,6.50
2023-11-17T22:32:04.996Z,5.80
2023-11-17T22:34:31.276Z,6.00
2023-11-17T22:39:23.635Z,4.50
2023-11-17T22:41:49.772Z,3.80
2023-11-17T22:44:16.419Z,3.50
2023-11-17T22:46:42.769Z,4.80
2023-11-17T22:49:08.988Z,6.20
2023-11-17T22:54:04.119Z,6.10
2023-11-17T22:56:30.590Z,4.40
2023-11-17T23:01:23.076Z,3.40
2023-11-17T23:03:49.369Z,5.30
2023-11-17T23:06:15.590Z,5.00
2023-11-17T23:08:41.746Z,6.30
2023-11-17T23:11:08.108Z,3.80
2023-11-17T23:13:34.250Z,3.90
2023-11-17T23:18:27.646Z,5.30
2023-11-17T23:20:53.916Z,4.60
2023-11-17T23:25:46.338Z,5.10
2023-11-17T23:28:12.584Z,2.80
2023-11-17T23:33:04.945Z,5.90
2023-11-17T23:37:57.470Z,3.70
2023-11-17T23:42:50.249Z,3.50
2023-11-17T23:45:16.500Z,8.60
2023-11-17T23:47:43.135Z,8.50
2023-11-17T23:50:09.299Z,10.40
2023-11-17T23:55:02.019Z,8.10
2023-11-17T23:59:54.446Z,9.80
